sensor_id;sensor_type;location;lat;lon;timestamp;pressure;altitude;pressure_sealevel;temperature;humidity
59588;BME280;45412;54.472;18.464;2024-01-30T00:00:51;101146.12;;;2.19;80.69
59588;BME280;45412;54.472;18.464;2024-01-30T00:03:48;101147.36;;;2.19;80.71
59588;BME280;45412;54.472;18.464;2024-01-30T00:06:34;101140.77;;;2.16;81.06
59588;BME280;45412;54.472;18.464;2024-01-30T00:09:20;101140.52;;;2.12;81.49
59588;BME280;45412;54.472;18.464;2024-01-30T00:12:07;101135.98;;;2.12;81.74
59588;BME280;45412;54.472;18.464;2024-01-30T00:14:54;101135.08;;;2.13;81.86
59588;BME280;45412;54.472;18.464;2024-01-30T00:17:41;101135.39;;;2.14;81.82
59588;BME280;45412;54.472;18.464;2024-01-30T00:20:28;101132.44;;;2.14;82.06
59588;BME280;45412;54.472;18.464;2024-01-30T00:23:14;101132.13;;;2.12;82.46
59588;BME280;45412;54.472;18.464;2024-01-30T00:26:00;101133.58;;;2.10;82.46
59588;BME280;45412;54.472;18.464;2024-01-30T00:28:47;101138.02;;;2.07;82.71
59588;BME280;45412;54.472;18.464;2024-01-30T00:31:35;101136.02;;;2.03;82.96
59588;BME280;45412;54.472;18.464;2024-01-30T00:34:25;101138.68;;;2.01;83.06
59588;BME280;45412;54.472;18.464;2024-01-30T00:37:12;101134.52;;;2.00;83.29
59588;BME280;45412;54.472;18.464;2024-01-30T00:39:58;101100.42;;;1.77;83.74
59588;BME280;45412;54.472;18.464;2024-01-30T00:42:45;101129.70;;;1.96;83.66
59588;BME280;45412;54.472;18.464;2024-01-30T00:45:32;101135.36;;;1.94;83.87
59588;BME280;45412;54.472;18.464;2024-01-30T00:48:18;101133.73;;;1.90;84.20
59588;BME280;45412;54.472;18.464;2024-01-30T00:51:05;101133.83;;;1.85;84.43
59588;BME280;45412;54.472;18.464;2024-01-30T00:53:51;101132.20;;;1.81;84.48
59588;BME280;45412;54.472;18.464;2024-01-30T00:56:38;101133.20;;;1.75;85.18
59588;BME280;45412;54.472;18.464;2024-01-30T00:59:25;101131.70;;;1.72;85.50
59588;BME280;45412;54.472;18.464;2024-01-30T01:02:11;101126.14;;;1.70;85.55
59588;BME280;45412;54.472;18.464;2024-01-30T01:04:58;101126.15;;;1.70;85.55
59588;BME280;45412;54.472;18.464;2024-01-30T01:07:45;101127.92;;;1.68;85.95
59588;BME280;45412;54.472;18.464;2024-01-30T01:10:33;101125.22;;;1.65;86.69
59588;BME280;45412;54.472;18.464;2024-01-30T01:13:20;101121.78;;;1.62;86.85
59588;BME280;45412;54.472;18.464;2024-01-30T01:16:06;101124.14;;;1.59;86.80
59588;BME280;45412;54.472;18.464;2024-01-30T01:18:53;101121.61;;;1.54;86.74
59588;BME280;45412;54.472;18.464;2024-01-30T01:21:39;101124.71;;;1.49;87.28
59588;BME280;45412;54.472;18.464;2024-01-30T01:24:26;101122.73;;;1.44;87.43
59588;BME280;45412;54.472;18.464;2024-01-30T01:27:13;101121.94;;;1.40;88.25
59588;BME280;45412;54.472;18.464;2024-01-30T01:29:59;101119.55;;;1.37;88.34
59588;BME280;45412;54.472;18.464;2024-01-30T01:32:45;101123.58;;;1.37;88.61
59588;BME280;45412;54.472;18.464;2024-01-30T01:35:37;101122.55;;;1.36;88.75
59588;BME280;45412;54.472;18.464;2024-01-30T01:38:23;101126.57;;;1.36;88.97
59588;BME280;45412;54.472;18.464;2024-01-30T01:41:09;101118.61;;;1.33;89.25
59588;BME280;45412;54.472;18.464;2024-01-30T01:43:56;101126.52;;;1.30;89.41
59588;BME280;45412;54.472;18.464;2024-01-30T01:46:43;101125.36;;;1.28;89.82
59588;BME280;45412;54.472;18.464;2024-01-30T01:49:30;101127.70;;;1.25;89.78
59588;BME280;45412;54.472;18.464;2024-01-30T01:52:17;101123.73;;;1.23;89.89
59588;BME280;45412;54.472;18.464;2024-01-30T01:55:03;101119.06;;;1.20;90.24
59588;BME280;45412;54.472;18.464;2024-01-30T01:57:52;101113.48;;;1.19;90.14
59588;BME280;45412;54.472;18.464;2024-01-30T02:00:39;101112.94;;;1.20;90.61
59588;BME280;45412;54.472;18.464;2024-01-30T02:03:28;101110.50;;;1.20;90.46
59588;BME280;45412;54.472;18.464;2024-01-30T02:06:16;101112.44;;;1.19;90.44
59588;BME280;45412;54.472;18.464;2024-01-30T02:09:03;101098.34;;;1.08;90.44
59588;BME280;45412;54.472;18.464;2024-01-30T02:11:51;101113.03;;;1.16;90.27
59588;BME280;45412;54.472;18.464;2024-01-30T02:14:48;101111.05;;;1.11;90.64
59588;BME280;45412;54.472;18.464;2024-01-30T02:17:34;101105.39;;;1.06;90.76
59588;BME280;45412;54.472;18.464;2024-01-30T02:20:23;101102.46;;;1.04;91.06
59588;BME280;45412;54.472;18.464;2024-01-30T02:23:12;101094.80;;;1.03;91.15
59588;BME280;45412;54.472;18.464;2024-01-30T02:25:58;101094.98;;;1.01;91.62
59588;BME280;45412;54.472;18.464;2024-01-30T02:28:46;101092.22;;;1.00;91.65
59588;BME280;45412;54.472;18.464;2024-01-30T02:31:33;101091.61;;;0.96;92.12
59588;BME280;45412;54.472;18.464;2024-01-30T02:34:20;101085.23;;;0.92;92.56
59588;BME280;45412;54.472;18.464;2024-01-30T02:37:07;101088.80;;;0.88;92.77
59588;BME280;45412;54.472;18.464;2024-01-30T02:39:54;101089.61;;;0.84;92.85
59588;BME280;45412;54.472;18.464;2024-01-30T02:42:41;101092.67;;;0.79;93.39
59588;BME280;45412;54.472;18.464;2024-01-30T02:45:28;101096.90;;;0.77;93.26
59588;BME280;45412;54.472;18.464;2024-01-30T02:48:14;101094.98;;;0.78;93.26
59588;BME280;45412;54.472;18.464;2024-01-30T02:51:01;101094.79;;;0.78;93.38
59588;BME280;45412;54.472;18.464;2024-01-30T02:53:48;101096.02;;;0.77;93.35
59588;BME280;45412;54.472;18.464;2024-01-30T02:56:35;101097.80;;;0.76;93.15
59588;BME280;45412;54.472;18.464;2024-01-30T02:59:21;101102.61;;;0.72;93.12
59588;BME280;45412;54.472;18.464;2024-01-30T03:02:08;101103.73;;;0.68;93.27
59588;BME280;45412;54.472;18.464;2024-01-30T03:04:54;101105.54;;;0.65;93.67
59588;BME280;45412;54.472;18.464;2024-01-30T03:07:41;101104.73;;;0.61;93.92
59588;BME280;45412;54.472;18.464;2024-01-30T03:10:29;101106.89;;;0.58;94.20
59588;BME280;45412;54.472;18.464;2024-01-30T03:13:15;101103.98;;;0.55;94.21
59588;BME280;45412;54.472;18.464;2024-01-30T03:16:02;101102.46;;;0.52;94.53
59588;BME280;45412;54.472;18.464;2024-01-30T03:18:49;101104.27;;;0.50;95.48
59588;BME280;45412;54.472;18.464;2024-01-30T03:21:36;101087.56;;;0.37;95.95
59588;BME280;45412;54.472;18.464;2024-01-30T03:24:22;101099.95;;;0.47;96.23
59588;BME280;45412;54.472;18.464;2024-01-30T03:27:09;101102.95;;;0.45;96.34
59588;BME280;45412;54.472;18.464;2024-01-30T03:29:55;101098.50;;;0.41;96.51
59588;BME280;45412;54.472;18.464;2024-01-30T03:32:43;101086.21;;;0.26;97.34
59588;BME280;45412;54.472;18.464;2024-01-30T03:35:29;101099.50;;;0.33;97.56
59588;BME280;45412;54.472;18.464;2024-01-30T03:38:16;101095.88;;;0.30;97.79
59588;BME280;45412;54.472;18.464;2024-01-30T03:41:02;101095.80;;;0.26;99.71
59588;BME280;45412;54.472;18.464;2024-01-30T03:43:48;101091.46;;;0.25;100.00
59588;BME280;45412;54.472;18.464;2024-01-30T03:46:35;101090.59;;;0.25;100.00
59588;BME280;45412;54.472;18.464;2024-01-30T03:49:22;101080.95;;;0.26;100.00
59588;BME280;45412;54.472;18.464;2024-01-30T03:52:09;101081.67;;;0.26;100.00
59588;BME280;45412;54.472;18.464;2024-01-30T03:54:55;101085.52;;;0.25;100.00
59588;BME280;45412;54.472;18.464;2024-01-30T03:57:41;101090.78;;;0.23;100.00
59588;BME280;45412;54.472;18.464;2024-01-30T04:00:28;101091.88;;;0.21;100.00
59588;BME280;45412;54.472;18.464;2024-01-30T04:03:15;101094.36;;;0.19;100.00
59588;BME280;45412;54.472;18.464;2024-01-30T04:06:04;101092.42;;;0.20;100.00
59588;BME280;45412;54.472;18.464;2024-01-30T04:08:51;101089.63;;;0.20;100.00
59588;BME280;45412;54.472;18.464;2024-01-30T04:11:37;101084.73;;;0.20;100.00
59588;BME280;45412;54.472;18.464;2024-01-30T04:14:24;101080.36;;;0.20;100.00
59588;BME280;45412;54.472;18.464;2024-01-30T04:17:10;101078.48;;;0.19;100.00
59588;BME280;45412;54.472;18.464;2024-01-30T04:19:57;101084.09;;;0.17;100.00
59588;BME280;45412;54.472;18.464;2024-01-30T04:22:44;101087.44;;;0.16;100.00
59588;BME280;45412;54.472;18.464;2024-01-30T04:25:31;101088.84;;;0.15;100.00
59588;BME280;45412;54.472;18.464;2024-01-30T04:28:18;101089.56;;;0.14;100.00
59588;BME280;45412;54.472;18.464;2024-01-30T04:31:05;101089.20;;;0.14;100.00
59588;BME280;45412;54.472;18.464;2024-01-30T04:33:51;101085.88;;;0.14;100.00
59588;BME280;45412;54.472;18.464;2024-01-30T04:36:38;101087.48;;;0.13;100.00
59588;BME280;45412;54.472;18.464;2024-01-30T04:39:24;101086.96;;;0.12;100.00
59588;BME280;45412;54.472;18.464;2024-01-30T04:42:11;101092.55;;;0.13;100.00
59588;BME280;45412;54.472;18.464;2024-01-30T04:44:58;101092.31;;;0.16;100.00
59588;BME280;45412;54.472;18.464;2024-01-30T04:47:44;101092.63;;;0.19;100.00
59588;BME280;45412;54.472;18.464;2024-01-30T04:50:32;101085.59;;;0.21;100.00
59588;BME280;45412;54.472;18.464;2024-01-30T04:53:18;101086.08;;;0.23;100.00
59588;BME280;45412;54.472;18.464;2024-01-30T04:56:06;101083.29;;;0.23;100.00
59588;BME280;45412;54.472;18.464;2024-01-30T04:58:52;101076.34;;;0.21;100.00
59588;BME280;45412;54.472;18.464;2024-01-30T05:01:39;101079.00;;;0.19;100.00
59588;BME280;45412;54.472;18.464;2024-01-30T05:04:26;101077.14;;;0.15;100.00
59588;BME280;45412;54.472;18.464;2024-01-30T05:07:12;101080.30;;;0.15;100.00
59588;BME280;45412;54.472;18.464;2024-01-30T05:09:59;101080.29;;;0.15;100.00
59588;BME280;45412;54.472;18.464;2024-01-30T05:12:49;101089.86;;;0.16;100.00
59588;BME280;45412;54.472;18.464;2024-01-30T05:15:35;101090.23;;;0.16;100.00
59588;BME280;45412;54.472;18.464;2024-01-30T05:18:22;101087.26;;;0.16;100.00
59588;BME280;45412;54.472;18.464;2024-01-30T05:21:08;101091.62;;;0.16;100.00
59588;BME280;45412;54.472;18.464;2024-01-30T05:23:55;101089.22;;;0.14;100.00
59588;BME280;45412;54.472;18.464;2024-01-30T05:26:42;101082.81;;;0.11;100.00
59588;BME280;45412;54.472;18.464;2024-01-30T05:29:28;101081.09;;;0.10;100.00
59588;BME280;45412;54.472;18.464;2024-01-30T05:32:15;101081.23;;;0.11;100.00
59588;BME280;45412;54.472;18.464;2024-01-30T05:35:01;101078.57;;;0.13;100.00
59588;BME280;45412;54.472;18.464;2024-01-30T05:37:48;101073.48;;;0.16;100.00
59588;BME280;45412;54.472;18.464;2024-01-30T05:40:38;101073.61;;;0.17;100.00
59588;BME280;45412;54.472;18.464;2024-01-30T05:43:24;101074.83;;;0.19;100.00
59588;BME280;45412;54.472;18.464;2024-01-30T05:46:11;101077.95;;;0.19;100.00
59588;BME280;45412;54.472;18.464;2024-01-30T05:48:58;101087.55;;;0.19;100.00
59588;BME280;45412;54.472;18.464;2024-01-30T05:51:44;101085.65;;;0.18;100.00
59588;BME280;45412;54.472;18.464;2024-01-30T05:54:31;101092.66;;;0.16;100.00
59588;BME280;45412;54.472;18.464;2024-01-30T05:57:17;101094.25;;;0.15;100.00
59588;BME280;45412;54.472;18.464;2024-01-30T06:00:06;101097.36;;;0.17;100.00
59588;BME280;45412;54.472;18.464;2024-01-30T06:02:53;101096.79;;;0.20;100.00
59588;BME280;45412;54.472;18.464;2024-01-30T06:05:40;101093.40;;;0.23;100.00
59588;BME280;45412;54.472;18.464;2024-01-30T06:08:26;101094.64;;;0.23;100.00
59588;BME280;45412;54.472;18.464;2024-01-30T06:11:13;101097.42;;;0.24;100.00
59588;BME280;45412;54.472;18.464;2024-01-30T06:13:59;101089.39;;;0.23;100.00
59588;BME280;45412;54.472;18.464;2024-01-30T06:16:46;101089.91;;;0.23;100.00
59588;BME280;45412;54.472;18.464;2024-01-30T06:19:32;101095.85;;;0.22;100.00
59588;BME280;45412;54.472;18.464;2024-01-30T06:22:19;101092.56;;;0.21;100.00
59588;BME280;45412;54.472;18.464;2024-01-30T06:25:06;101095.36;;;0.22;100.00
59588;BME280;45412;54.472;18.464;2024-01-30T06:27:53;101090.25;;;0.24;100.00
59588;BME280;45412;54.472;18.464;2024-01-30T06:30:39;101095.41;;;0.28;100.00
59588;BME280;45412;54.472;18.464;2024-01-30T06:33:26;101089.40;;;0.32;100.00
59588;BME280;45412;54.472;18.464;2024-01-30T06:36:12;101085.34;;;0.34;100.00
59588;BME280;45412;54.472;18.464;2024-01-30T06:38:59;101085.34;;;0.34;100.00
59588;BME280;45412;54.472;18.464;2024-01-30T06:41:45;101083.10;;;0.33;100.00
59588;BME280;45412;54.472;18.464;2024-01-30T06:44:32;101086.45;;;0.31;100.00
59588;BME280;45412;54.472;18.464;2024-01-30T06:47:19;101087.48;;;0.32;100.00
59588;BME280;45412;54.472;18.464;2024-01-30T06:50:06;101086.01;;;0.36;100.00
59588;BME280;45412;54.472;18.464;2024-01-30T06:52:53;101085.72;;;0.42;100.00
59588;BME280;45412;54.472;18.464;2024-01-30T06:55:39;101086.13;;;0.48;100.00
59588;BME280;45412;54.472;18.464;2024-01-30T06:58:26;101087.47;;;0.51;100.00
59588;BME280;45412;54.472;18.464;2024-01-30T07:01:12;101084.09;;;0.54;100.00
59588;BME280;45412;54.472;18.464;2024-01-30T07:03:59;101080.38;;;0.56;100.00
59588;BME280;45412;54.472;18.464;2024-01-30T07:06:46;101074.94;;;0.58;100.00
59588;BME280;45412;54.472;18.464;2024-01-30T07:09:32;101075.04;;;0.61;100.00
59588;BME280;45412;54.472;18.464;2024-01-30T07:12:20;101077.06;;;0.65;100.00
59588;BME280;45412;54.472;18.464;2024-01-30T07:15:07;101076.44;;;0.70;100.00
59588;BME280;45412;54.472;18.464;2024-01-30T07:17:56;101078.90;;;0.78;100.00
59588;BME280;45412;54.472;18.464;2024-01-30T07:20:43;101075.62;;;0.84;100.00
59588;BME280;45412;54.472;18.464;2024-01-30T07:23:32;101077.07;;;0.90;100.00
59588;BME280;45412;54.472;18.464;2024-01-30T07:26:20;101080.80;;;0.94;99.84
59588;BME280;45412;54.472;18.464;2024-01-30T07:29:07;101080.04;;;0.98;99.60
59588;BME280;45412;54.472;18.464;2024-01-30T07:31:53;101076.77;;;1.04;99.22
59588;BME280;45412;54.472;18.464;2024-01-30T07:34:40;101077.66;;;1.10;98.92
59588;BME280;45412;54.472;18.464;2024-01-30T07:37:39;101080.31;;;1.17;98.89
59588;BME280;45412;54.472;18.464;2024-01-30T07:40:25;101081.86;;;1.26;98.94
59588;BME280;45412;54.472;18.464;2024-01-30T07:43:12;101081.31;;;1.35;98.64
59588;BME280;45412;54.472;18.464;2024-01-30T07:45:59;101079.02;;;1.43;97.65
59588;BME280;45412;54.472;18.464;2024-01-30T07:48:46;101078.66;;;1.51;97.20
59588;BME280;45412;54.472;18.464;2024-01-30T07:51:33;101077.36;;;1.61;97.11
59588;BME280;45412;54.472;18.464;2024-01-30T07:54:20;101078.67;;;1.72;96.67
59588;BME280;45412;54.472;18.464;2024-01-30T07:57:06;101077.95;;;1.80;95.81
59588;BME280;45412;54.472;18.464;2024-01-30T07:59:53;101079.70;;;1.87;95.00
59588;BME280;45412;54.472;18.464;2024-01-30T08:02:40;101046.48;;;1.73;94.01
59588;BME280;45412;54.472;18.464;2024-01-30T08:05:26;101078.75;;;1.97;94.28
59588;BME280;45412;54.472;18.464;2024-01-30T08:08:13;101082.35;;;2.07;93.88
59588;BME280;45412;54.472;18.464;2024-01-30T08:10:59;101077.57;;;2.16;93.05
59588;BME280;45412;54.472;18.464;2024-01-30T08:13:46;101077.27;;;2.20;91.88
59588;BME280;45412;54.472;18.464;2024-01-30T08:16:32;101076.19;;;2.28;91.46
59588;BME280;45412;54.472;18.464;2024-01-30T08:19:19;101076.96;;;2.44;91.83
59588;BME280;45412;54.472;18.464;2024-01-30T08:22:05;101076.13;;;2.62;91.53
59588;BME280;45412;54.472;18.464;2024-01-30T08:24:52;101073.15;;;2.80;90.72
59588;BME280;45412;54.472;18.464;2024-01-30T08:27:38;101071.06;;;2.97;89.57
59588;BME280;45412;54.472;18.464;2024-01-30T08:30:25;101065.06;;;3.16;88.98
59588;BME280;45412;54.472;18.464;2024-01-30T08:33:13;101059.61;;;3.44;88.03
59588;BME280;45412;54.472;18.464;2024-01-30T08:36:00;101060.72;;;3.91;86.05
59588;BME280;45412;54.472;18.464;2024-01-30T08:38:46;101059.25;;;4.43;82.50
59588;BME280;45412;54.472;18.464;2024-01-30T08:41:33;101054.42;;;4.97;80.18
59588;BME280;45412;54.472;18.464;2024-01-30T08:44:21;101054.81;;;5.37;76.85
59588;BME280;45412;54.472;18.464;2024-01-30T08:47:07;101059.42;;;5.53;74.00
59588;BME280;45412;54.472;18.464;2024-01-30T08:49:54;101061.41;;;5.73;73.12
59588;BME280;45412;54.472;18.464;2024-01-30T08:52:40;101065.96;;;6.04;71.15
59588;BME280;45412;54.472;18.464;2024-01-30T08:55:27;101069.59;;;6.23;69.34
59588;BME280;45412;54.472;18.464;2024-01-30T08:58:13;101069.54;;;6.28;68.98
59588;BME280;45412;54.472;18.464;2024-01-30T09:01:00;101069.92;;;6.31;68.83
59588;BME280;45412;54.472;18.464;2024-01-30T09:03:46;101067.02;;;6.56;68.84
59588;BME280;45412;54.472;18.464;2024-01-30T09:06:32;101067.07;;;6.83;67.28
59588;BME280;45412;54.472;18.464;2024-01-30T09:09:19;101063.90;;;7.10;66.49
59588;BME280;45412;54.472;18.464;2024-01-30T09:12:06;101062.25;;;7.44;64.87
59588;BME280;45412;54.472;18.464;2024-01-30T09:14:55;101064.17;;;7.67;63.12
59588;BME280;45412;54.472;18.464;2024-01-30T09:17:42;101058.16;;;7.81;62.09
59588;BME280;45412;54.472;18.464;2024-01-30T09:20:28;101055.52;;;7.95;61.76
59588;BME280;45412;54.472;18.464;2024-01-30T09:23:20;101058.34;;;7.98;60.93
59588;BME280;45412;54.472;18.464;2024-01-30T09:26:06;101060.39;;;8.07;59.59
59588;BME280;45412;54.472;18.464;2024-01-30T09:28:53;101055.37;;;8.25;59.67
59588;BME280;45412;54.472;18.464;2024-01-30T09:31:43;101055.01;;;8.53;58.76
59588;BME280;45412;54.472;18.464;2024-01-30T09:34:30;101054.26;;;8.80;57.59
59588;BME280;45412;54.472;18.464;2024-01-30T09:37:16;101045.67;;;9.05;56.86
59588;BME280;45412;54.472;18.464;2024-01-30T09:40:06;101049.97;;;9.57;55.88
59588;BME280;45412;54.472;18.464;2024-01-30T09:42:53;101048.52;;;10.06;54.59
59588;BME280;45412;54.472;18.464;2024-01-30T09:45:42;101041.06;;;10.77;51.54
59588;BME280;45412;54.472;18.464;2024-01-30T09:48:30;101042.39;;;11.47;50.22
59588;BME280;45412;54.472;18.464;2024-01-30T09:51:17;101039.58;;;12.34;47.94
59588;BME280;45412;54.472;18.464;2024-01-30T09:54:04;101037.61;;;13.02;45.13
59588;BME280;45412;54.472;18.464;2024-01-30T09:56:51;101037.20;;;13.57;44.44
59588;BME280;45412;54.472;18.464;2024-01-30T09:59:37;101031.58;;;13.87;43.24
59588;BME280;45412;54.472;18.464;2024-01-30T10:02:24;101033.82;;;13.76;42.51
59588;BME280;45412;54.472;18.464;2024-01-30T10:05:11;101031.54;;;13.66;42.99
59588;BME280;45412;54.472;18.464;2024-01-30T10:08:06;101031.16;;;13.57;42.66
59588;BME280;45412;54.472;18.464;2024-01-30T10:10:57;101029.80;;;13.44;42.47
59588;BME280;45412;54.472;18.464;2024-01-30T10:13:45;101026.16;;;13.23;42.55
59588;BME280;45412;54.472;18.464;2024-01-30T10:16:37;101018.62;;;12.67;42.98
59588;BME280;45412;54.472;18.464;2024-01-30T10:19:24;101021.52;;;12.73;44.02
59588;BME280;45412;54.472;18.464;2024-01-30T10:22:11;101014.23;;;13.03;44.54
59588;BME280;45412;54.472;18.464;2024-01-30T10:24:58;101016.41;;;13.66;42.99
59588;BME280;45412;54.472;18.464;2024-01-30T10:27:54;101018.33;;;14.24;42.30
59588;BME280;45412;54.472;18.464;2024-01-30T10:30:44;101008.06;;;14.90;41.13
59588;BME280;45412;54.472;18.464;2024-01-30T10:33:31;101013.98;;;15.33;40.04
59588;BME280;45412;54.472;18.464;2024-01-30T10:36:18;101010.44;;;15.56;39.67
59588;BME280;45412;54.472;18.464;2024-01-30T10:39:07;101001.23;;;15.66;39.41
59588;BME280;45412;54.472;18.464;2024-01-30T10:41:56;100999.63;;;15.73;39.21
59588;BME280;45412;54.472;18.464;2024-01-30T10:47:55;100993.34;;;16.00;37.71
59588;BME280;45412;54.472;18.464;2024-01-30T10:50:45;100988.10;;;15.84;38.05
59588;BME280;45412;54.472;18.464;2024-01-30T10:53:46;100983.11;;;15.71;37.52
59588;BME280;45412;54.472;18.464;2024-01-30T10:56:33;100981.70;;;15.54;38.37
59588;BME280;45412;54.472;18.464;2024-01-30T10:59:21;100983.48;;;15.52;38.56
59588;BME280;45412;54.472;18.464;2024-01-30T11:02:10;100980.81;;;15.26;38.05
59588;BME280;45412;54.472;18.464;2024-01-30T11:04:59;100981.34;;;15.19;38.37
59588;BME280;45412;54.472;18.464;2024-01-30T11:07:46;100980.14;;;15.33;38.65
59588;BME280;45412;54.472;18.464;2024-01-30T11:10:44;100976.52;;;15.39;38.10
59588;BME280;45412;54.472;18.464;2024-01-30T11:13:31;100973.79;;;15.52;38.40
59588;BME280;45412;54.472;18.464;2024-01-30T11:16:19;100973.41;;;15.78;37.95
59588;BME280;45412;54.472;18.464;2024-01-30T11:19:11;100974.55;;;15.82;37.59
59588;BME280;45412;54.472;18.464;2024-01-30T11:22:00;100969.45;;;15.83;37.99
59588;BME280;45412;54.472;18.464;2024-01-30T11:24:47;100964.25;;;15.78;37.63
59588;BME280;45412;54.472;18.464;2024-01-30T11:27:34;100958.45;;;15.90;37.77
59588;BME280;45412;54.472;18.464;2024-01-30T11:30:25;100950.54;;;16.07;37.74
59588;BME280;45412;54.472;18.464;2024-01-30T11:33:28;100949.25;;;16.03;37.85
59588;BME280;45412;54.472;18.464;2024-01-30T11:36:25;100945.77;;;16.02;37.45
59588;BME280;45412;54.472;18.464;2024-01-30T11:39:12;100943.29;;;15.98;37.63
59588;BME280;45412;54.472;18.464;2024-01-30T11:42:03;100935.30;;;16.01;37.65
59588;BME280;45412;54.472;18.464;2024-01-30T11:44:53;100934.85;;;15.88;37.46
59588;BME280;45412;54.472;18.464;2024-01-30T11:47:40;100933.27;;;15.55;37.50
59588;BME280;45412;54.472;18.464;2024-01-30T11:50:33;100932.25;;;15.38;37.95
59588;BME280;45412;54.472;18.464;2024-01-30T11:53:21;100921.90;;;15.25;38.65
59588;BME280;45412;54.472;18.464;2024-01-30T11:56:08;100921.45;;;14.85;39.19
59588;BME280;45412;54.472;18.464;2024-01-30T11:58:54;100916.14;;;14.46;40.29
59588;BME280;45412;54.472;18.464;2024-01-30T12:01:41;100915.31;;;14.14;40.53
59588;BME280;45412;54.472;18.464;2024-01-30T12:04:29;100923.03;;;13.70;41.14
59588;BME280;45412;54.472;18.464;2024-01-30T12:07:16;100922.77;;;13.33;42.08
59588;BME280;45412;54.472;18.464;2024-01-30T12:10:03;100917.55;;;12.83;42.85
59588;BME280;45412;54.472;18.464;2024-01-30T12:12:50;100920.77;;;12.41;43.83
59588;BME280;45412;54.472;18.464;2024-01-30T12:15:37;100917.13;;;12.17;44.53
59588;BME280;45412;54.472;18.464;2024-01-30T12:18:23;100917.09;;;12.00;44.93
59588;BME280;45412;54.472;18.464;2024-01-30T12:21:09;100910.68;;;11.82;45.78
59588;BME280;45412;54.472;18.464;2024-01-30T12:23:57;100911.33;;;11.64;46.18
59588;BME280;45412;54.472;18.464;2024-01-30T12:26:44;100909.48;;;11.42;46.89
59588;BME280;45412;54.472;18.464;2024-01-30T12:29:32;100912.34;;;11.04;47.57
59588;BME280;45412;54.472;18.464;2024-01-30T12:32:24;100916.08;;;10.82;48.67
59588;BME280;45412;54.472;18.464;2024-01-30T12:35:15;100914.67;;;10.79;49.26
59588;BME280;45412;54.472;18.464;2024-01-30T12:38:03;100914.36;;;10.70;49.38
59588;BME280;45412;54.472;18.464;2024-01-30T12:40:54;100917.67;;;10.57;49.89
59588;BME280;45412;54.472;18.464;2024-01-30T12:43:42;100916.48;;;10.43;50.32
59588;BME280;45412;54.472;18.464;2024-01-30T12:46:29;100917.60;;;10.24;50.71
59588;BME280;45412;54.472;18.464;2024-01-30T12:49:16;100913.67;;;10.07;51.19
59588;BME280;45412;54.472;18.464;2024-01-30T12:52:03;100912.27;;;9.90;52.08
59588;BME280;45412;54.472;18.464;2024-01-30T12:54:51;100917.58;;;9.75;52.29
59588;BME280;45412;54.472;18.464;2024-01-30T12:57:37;100921.88;;;9.60;52.69
59588;BME280;45412;54.472;18.464;2024-01-30T13:00:25;100919.27;;;9.47;53.20
59588;BME280;45412;54.472;18.464;2024-01-30T13:03:12;100919.73;;;9.33;53.58
59588;BME280;45412;54.472;18.464;2024-01-30T13:05:59;100919.09;;;9.23;54.39
59588;BME280;45412;54.472;18.464;2024-01-30T13:08:45;100915.85;;;9.02;54.62
59588;BME280;45412;54.472;18.464;2024-01-30T13:11:31;100909.20;;;8.80;55.48
59588;BME280;45412;54.472;18.464;2024-01-30T13:14:19;100908.27;;;8.52;56.33
59588;BME280;45412;54.472;18.464;2024-01-30T13:17:05;100906.03;;;8.34;57.17
59588;BME280;45412;54.472;18.464;2024-01-30T13:19:53;100901.34;;;8.16;58.11
59588;BME280;45412;54.472;18.464;2024-01-30T13:22:43;100907.56;;;7.99;58.87
59588;BME280;45412;54.472;18.464;2024-01-30T13:25:31;100906.00;;;7.89;59.45
59588;BME280;45412;54.472;18.464;2024-01-30T13:28:17;100902.46;;;7.85;60.00
59588;BME280;45412;54.472;18.464;2024-01-30T13:31:04;100901.90;;;7.85;60.10
59588;BME280;45412;54.472;18.464;2024-01-30T13:33:53;100900.00;;;7.81;60.49
59588;BME280;45412;54.472;18.464;2024-01-30T13:36:40;100898.95;;;7.74;60.82
59588;BME280;45412;54.472;18.464;2024-01-30T13:39:27;100899.48;;;7.64;61.65
59588;BME280;45412;54.472;18.464;2024-01-30T13:42:22;100894.96;;;7.46;62.16
59588;BME280;45412;54.472;18.464;2024-01-30T13:45:09;100888.23;;;7.25;62.95
59588;BME280;45412;54.472;18.464;2024-01-30T13:47:58;100889.66;;;7.11;63.44
59588;BME280;45412;54.472;18.464;2024-01-30T13:50:45;100883.55;;;6.99;64.23
59588;BME280;45412;54.472;18.464;2024-01-30T13:53:32;100888.02;;;6.91;64.79
59588;BME280;45412;54.472;18.464;2024-01-30T13:56:19;100889.80;;;6.79;65.27
59588;BME280;45412;54.472;18.464;2024-01-30T13:59:05;100895.88;;;6.66;66.13
59588;BME280;45412;54.472;18.464;2024-01-30T14:01:52;100897.27;;;6.56;66.60
59588;BME280;45412;54.472;18.464;2024-01-30T14:04:39;100897.62;;;6.44;67.26
59588;BME280;45412;54.472;18.464;2024-01-30T14:07:26;100898.89;;;6.32;67.44
59588;BME280;45412;54.472;18.464;2024-01-30T14:10:13;100894.52;;;6.24;68.47
59588;BME280;45412;54.472;18.464;2024-01-30T14:13:01;100893.70;;;6.15;68.89
59588;BME280;45412;54.472;18.464;2024-01-30T14:15:47;100896.13;;;6.04;69.18
59588;BME280;45412;54.472;18.464;2024-01-30T14:18:34;100891.79;;;5.91;70.07
59588;BME280;45412;54.472;18.464;2024-01-30T14:21:20;100889.65;;;5.79;70.69
59588;BME280;45412;54.472;18.464;2024-01-30T14:24:07;100887.64;;;5.69;71.28
59588;BME280;45412;54.472;18.464;2024-01-30T14:26:53;100890.01;;;5.59;72.15
59588;BME280;45412;54.472;18.464;2024-01-30T14:29:39;100892.02;;;5.49;72.86
59588;BME280;45412;54.472;18.464;2024-01-30T14:32:27;100894.14;;;5.41;73.27